Time;durP1;ratioP1;P1;durP2;ratioP2;P2;SDS_P1;SDS_P2;PMS_P1;PMS_P2;Temp;Humidity;BMP_temperature;BMP_pressure;BME280_temperature;BME280_humidity;BME280_pressure;Samples;Min_cycle;Max_cycle;Signal;HPM_P1;HPM_P2
2022/08/25 00:00:26;;;;;;;10.52;7.00;;;;;;;17.68;84.20;96433.47;4990686;28;20433;-77
2022/08/25 00:02:54;;;;;;;8.43;5.82;;;;;;;17.59;84.11;96436.44;4990883;28;20046;-79
2022/08/25 00:05:21;;;;;;;10.05;6.82;;;;;;;17.57;84.33;96429.69;4990526;28;20042;-78
2022/08/25 00:07:48;;;;;;;9.00;6.25;;;;;;;17.55;84.54;96421.81;4991213;28;20061;-78
2022/08/25 00:10:14;;;;;;;10.23;6.60;;;;;;;17.54;84.88;96428.47;4990778;28;20050;-78
2022/08/25 00:12:42;;;;;;;10.00;7.18;;;;;;;17.50;85.16;96416.56;4991062;28;20050;-78
2022/08/25 00:15:09;;;;;;;9.40;6.63;;;;;;;17.44;85.56;96418.81;4990757;28;20042;-78
2022/08/25 00:17:36;;;;;;;10.05;6.72;;;;;;;17.39;85.89;96410.84;4988722;28;20047;-77
2022/08/25 00:20:05;;;;;;;8.10;5.93;;;;;;;17.35;86.21;96415.47;4990037;28;20046;-78
2022/08/25 00:22:31;;;;;;;10.95;7.05;;;;;;;17.34;86.52;96419.38;4990523;28;20081;-78
2022/08/25 00:24:58;;;;;;;9.07;7.15;;;;;;;17.28;86.61;96417.25;4988155;28;20054;-77
2022/08/25 00:27:24;;;;;;;13.25;7.32;;;;;;;17.29;87.24;96416.91;4990445;28;20401;-78
2022/08/25 00:29:52;;;;;;;10.75;7.70;;;;;;;17.29;87.47;96414.16;4991070;28;20047;-78
2022/08/25 00:32:19;;;;;;;11.23;7.70;;;;;;;17.24;87.54;96408.16;4990731;28;20042;-79
2022/08/25 00:34:45;;;;;;;10.40;7.22;;;;;;;17.22;87.94;96412.03;4990870;28;20469;-78
2022/08/25 00:37:11;;;;;;;10.05;7.10;;;;;;;17.20;87.78;96419.06;4990334;28;20047;-78
2022/08/25 00:39:39;;;;;;;12.80;7.40;;;;;;;17.22;87.96;96411.25;4990739;28;20054;-78
2022/08/25 00:42:08;;;;;;;10.60;6.80;;;;;;;17.27;87.96;96423.91;4990471;28;20042;-79
2022/08/25 00:44:35;;;;;;;9.48;6.72;;;;;;;17.27;87.50;96416.47;4990766;28;20050;-78
2022/08/25 00:47:05;;;;;;;10.27;6.75;;;;;;;17.30;86.78;96415.75;4990766;28;20069;-79
2022/08/25 00:49:36;;;;;;;8.90;6.55;;;;;;;17.30;86.82;96415.75;4990436;28;20054;-78
2022/08/25 00:52:05;;;;;;;9.80;6.75;;;;;;;17.34;87.14;96419.38;4990553;28;20050;-78
2022/08/25 00:54:34;;;;;;;9.07;6.57;;;;;;;17.32;86.34;96405.16;4997641;28;20045;-77
2022/08/25 00:57:02;;;;;;;11.73;7.70;;;;;;;17.31;86.27;96409.09;4991016;28;20070;-79
2022/08/25 00:59:29;;;;;;;11.27;7.93;;;;;;;17.29;86.13;96408.66;4990159;28;20047;-78
2022/08/25 01:01:57;;;;;;;10.98;6.88;;;;;;;17.31;86.64;96400.03;4990505;28;20379;-78
2022/08/25 01:04:26;;;;;;;9.63;7.30;;;;;;;17.34;86.64;96402.09;4990178;28;20077;-78
2022/08/25 01:06:53;;;;;;;9.02;6.88;;;;;;;17.32;86.13;96405.16;4992898;28;20053;-79
2022/08/25 01:09:20;;;;;;;9.00;7.28;;;;;;;17.31;85.86;96403.59;4993836;28;20129;-79
2022/08/25 01:11:47;;;;;;;11.20;6.90;;;;;;;17.28;86.02;96401.56;4994493;28;20049;-78
2022/08/25 01:14:17;;;;;;;11.00;7.43;;;;;;;17.31;86.54;96403.59;4993990;28;20465;-79
2022/08/25 01:16:45;;;;;;;10.45;7.88;;;;;;;17.31;86.25;96406.34;4994190;28;20050;-78
2022/08/25 01:19:14;;;;;;;10.05;6.75;;;;;;;17.27;86.20;96401.91;4993590;28;20052;-78
2022/08/25 01:21:44;;;;;;;10.77;7.72;;;;;;;17.25;86.89;96402.28;4994360;28;20046;-79
2022/08/25 01:24:16;;;;;;;10.32;7.57;;;;;;;17.27;86.92;96399.94;4997916;28;20589;-79
2022/08/25 01:26:42;;;;;;;10.00;7.38;;;;;;;17.26;86.34;96401.13;5013304;28;20053;-79
2022/08/25 01:29:24;;;;;;;9.57;7.07;;;;;;;17.22;85.89;96395.53;5013062;28;20636;-78
2022/08/25 01:31:55;;;;;;;9.98;6.88;;;;;;;17.19;85.79;96400.97;5013646;28;20496;-78
2022/08/25 01:34:22;;;;;;;10.25;7.18;;;;;;;17.16;85.84;96391.47;5013217;28;20136;-79
2022/08/25 01:36:50;;;;;;;10.93;6.82;;;;;;;17.17;85.77;96392.25;5013467;28;20061;-78
2022/08/25 01:39:16;;;;;;;11.35;7.00;;;;;;;17.17;86.04;96392.25;5012975;28;20050;-79
2022/08/25 01:41:54;;;;;;;10.13;6.93;;;;;;;17.12;85.67;96395.28;5013302;28;20516;-78
2022/08/25 01:44:21;;;;;;;9.85;7.05;;;;;;;17.02;85.51;96393.09;5013103;28;20493;-79
2022/08/25 01:46:47;;;;;;;9.70;7.00;;;;;;;16.94;85.78;96390.19;5013399;28;20128;-78
2022/08/25 01:49:14;;;;;;;9.38;6.88;;;;;;;16.94;86.86;96389.41;5012856;28;20053;-78
2022/08/25 01:51:47;;;;;;;10.95;6.97;;;;;;;16.96;86.96;96387.06;5013128;28;20512;-78
2022/08/25 01:54:14;;;;;;;8.85;6.75;;;;;;;16.97;87.01;96383.19;5012748;28;20038;-78
2022/08/25 01:56:41;;;;;;;11.13;6.97;;;;;;;16.98;87.19;96393.03;4996571;28;20047;-78
2022/08/25 01:59:07;;;;;;;10.13;7.15;;;;;;;17.01;87.74;96386.00;4993253;28;20442;-79
2022/08/25 02:01:34;;;;;;;10.18;7.25;;;;;;;17.04;88.22;96393.56;4993234;28;20418;-79
2022/08/25 02:04:00;;;;;;;10.48;7.10;;;;;;;17.10;88.66;96394.84;4993453;28;20069;-78
2022/08/25 02:06:31;;;;;;;10.48;7.93;;;;;;;17.14;88.98;96404.00;4993193;28;20524;-79
2022/08/25 02:09:00;;;;;;;12.95;7.93;;;;;;;17.15;88.40;96397.34;4993429;28;20524;-78
2022/08/25 02:11:29;;;;;;;11.00;7.60;;;;;;;17.20;89.01;96391.56;4993252;28;20061;-77
2022/08/25 02:13:55;;;;;;;11.00;8.00;;;;;;;17.22;88.54;96400.22;4993256;28;20513;-77
2022/08/25 02:16:27;;;;;;;10.68;7.70;;;;;;;17.21;87.74;96388.44;4992156;28;20122;-79
2022/08/25 02:18:53;;;;;;;10.30;7.15;;;;;;;17.21;87.70;96384.88;4993458;28;20048;-77
2022/08/25 02:21:20;;;;;;;10.52;7.72;;;;;;;17.16;87.80;96383.22;4992654;28;20516;-78
2022/08/25 02:23:47;;;;;;;12.30;8.07;;;;;;;17.19;88.19;96378.94;4993824;28;20053;-79
2022/08/25 02:26:15;;;;;;;11.18;7.70;;;;;;;17.19;88.33;96384.47;5011468;28;20405;-78
2022/08/25 02:28:43;;;;;;;12.02;8.23;;;;;;;17.21;88.51;96379.38;5012474;28;20065;-78
2022/08/25 02:31:10;;;;;;;11.98;8.48;;;;;;;17.26;88.42;96381.84;5012042;28;20053;-78
2022/08/25 02:33:36;;;;;;;10.10;7.63;;;;;;;17.24;87.45;96381.41;5012302;28;20120;-79
2022/08/25 02:36:04;;;;;;;10.10;7.43;;;;;;;17.25;87.37;96383.00;5011955;28;20056;-78
2022/08/25 02:38:31;;;;;;;12.55;7.80;;;;;;;17.27;87.50;96380.69;5013672;28;20049;-79
2022/08/25 02:40:59;;;;;;;12.02;7.88;;;;;;;17.27;87.43;96380.69;5015900;28;20383;-78
2022/08/25 02:43:27;;;;;;;13.13;8.00;;;;;;;17.27;86.75;96377.13;5011878;28;20049;-77
2022/08/25 02:45:56;;;;;;;12.52;8.18;;;;;;;17.25;87.13;96377.50;5012220;28;20061;-80
2022/08/25 02:48:23;;;;;;;12.93;8.70;;;;;;;17.24;86.98;96375.13;5011737;28;20074;-78
2022/08/25 02:50:51;;;;;;;11.60;8.20;;;;;;;17.21;87.28;96373.88;5012082;28;20054;-78
2022/08/25 02:53:18;;;;;;;12.77;7.88;;;;;;;17.19;86.85;96378.94;5011600;28;20125;-78
2022/08/25 02:55:45;;;;;;;12.57;8.05;;;;;;;17.13;87.17;96372.13;5011553;28;20057;-78
2022/08/25 02:58:11;;;;;;;13.85;8.18;;;;;;;17.10;87.36;96376.41;5011707;28;20053;-79
2022/08/25 03:00:38;;;;;;;11.68;8.23;;;;;;;17.05;87.31;96373.13;5011835;28;20042;-78
2022/08/25 03:03:06;;;;;;;10.68;8.13;;;;;;;17.00;87.14;96370.66;5011192;28;20050;-78
2022/08/25 03:05:33;;;;;;;11.52;8.15;;;;;;;16.90;87.24;96361.81;5011865;28;20076;-78
2022/08/25 03:07:59;;;;;;;12.45;7.88;;;;;;;16.85;87.17;96361.28;5012097;28;20054;-77
2022/08/25 03:10:26;;;;;;;12.68;8.52;;;;;;;16.81;87.53;96369.47;5011307;28;20042;-77
2022/08/25 03:12:53;;;;;;;12.20;7.80;;;;;;;16.80;87.85;96367.84;5011964;28;20057;-78
2022/08/25 03:15:20;;;;;;;14.27;9.40;;;;;;;16.82;87.75;96367.53;5011231;28;20437;-78
2022/08/25 03:17:48;;;;;;;12.88;8.88;;;;;;;16.81;87.90;96363.97;5011615;28;20045;-77
2022/08/25 03:20:16;;;;;;;11.98;8.45;;;;;;;16.79;87.93;96366.25;5011574;28;20045;-79
2022/08/25 03:22:43;;;;;;;11.45;8.60;;;;;;;16.82;88.16;96360.06;5011496;28;20073;-79
2022/08/25 03:27:55;;;;;;;12.90;8.68;;;;;;;16.83;88.28;96358.09;5011113;28;20512;-78
2022/08/25 03:30:21;;;;;;;12.45;8.55;;;;;;;16.85;88.58;96358.53;5010720;28;20057;-78
2022/08/25 03:32:48;;;;;;;12.88;9.52;;;;;;;16.85;88.74;96364.81;5011453;28;20054;-79
2022/08/25 03:35:16;;;;;;;13.88;9.38;;;;;;;16.85;88.82;96359.31;5010814;28;20065;-79
2022/08/25 03:37:42;;;;;;;13.02;9.10;;;;;;;16.86;88.79;96366.44;5011578;28;20046;-79
2022/08/25 03:40:12;;;;;;;13.43;8.93;;;;;;;16.90;88.83;96361.81;5010688;28;20554;-79
2022/08/25 03:42:41;;;;;;;14.43;9.68;;;;;;;16.86;88.18;96360.94;5010748;28;20532;-80
2022/08/25 03:45:10;;;;;;;13.35;9.05;;;;;;;16.85;88.28;96358.53;5010621;28;20061;-78
2022/08/25 03:47:37;;;;;;;14.32;9.82;;;;;;;16.85;88.48;96364.81;5011389;28;20120;-78
2022/08/25 03:50:04;;;;;;;13.32;9.43;;;;;;;16.84;88.38;96366.00;5010592;28;20050;-79
2022/08/25 03:52:32;;;;;;;14.75;9.52;;;;;;;16.84;88.55;96362.44;5010947;28;20034;-78
2022/08/25 03:54:58;;;;;;;13.18;9.00;;;;;;;16.83;88.87;96356.16;5010432;28;20054;-78
2022/08/25 03:57:25;;;;;;;15.05;9.57;;;;;;;16.84;88.62;96352.25;5010606;28;20049;-79
2022/08/25 03:59:52;;;;;;;13.45;9.65;;;;;;;16.82;88.69;96360.06;5011042;28;20049;-79
2022/08/25 04:02:18;;;;;;;14.93;9.85;;;;;;;16.81;88.64;96350.22;5010301;28;20070;-78
2022/08/25 04:04:45;;;;;;;13.65;9.38;;;;;;;16.83;88.63;96355.34;5010976;28;20628;-79
2022/08/25 04:07:11;;;;;;;16.52;8.93;;;;;;;16.78;88.53;96348.19;5010342;28;20049;-78
2022/08/25 04:09:39;;;;;;;13.68;9.27;;;;;;;16.77;88.83;96346.59;5010977;28;20048;-79
2022/08/25 04:12:06;;;;;;;11.27;9.07;;;;;;;16.79;89.19;96348.97;5010535;28;20053;-79
2022/08/25 04:14:33;;;;;;;14.02;9.52;;;;;;;16.82;88.64;96354.56;5010626;28;20053;-78
2022/08/25 04:16:59;;;;;;;12.20;8.68;;;;;;;16.80;88.88;96350.56;5010831;28;20050;-78
2022/08/25 04:19:26;;;;;;;13.70;9.13;;;;;;;16.83;89.18;96350.66;5010149;28;20069;-77
2022/08/25 04:21:53;;;;;;;13.00;8.75;;;;;;;16.80;88.62;96356.84;5010557;28;20053;-78
2022/08/25 04:24:20;;;;;;;12.75;8.55;;;;;;;16.80;88.51;96354.09;4996537;28;20494;-79
2022/08/25 04:26:51;;;;;;;11.77;8.73;;;;;;;16.77;87.78;96352.09;4990936;28;20043;-78
2022/08/25 04:29:21;;;;;;;13.98;9.18;;;;;;;16.74;88.05;96350.03;4990302;28;20047;-78
2022/08/25 04:31:49;;;;;;;15.32;8.80;;;;;;;16.70;87.82;96351.88;4991076;28;20057;-78
2022/08/25 04:34:17;;;;;;;12.45;9.20;;;;;;;16.69;87.86;96356.56;4990383;28;20050;-79
2022/08/25 04:36:44;;;;;;;12.95;8.40;;;;;;;16.68;88.41;96360.50;4990694;28;20042;-78
2022/08/25 04:39:10;;;;;;;14.02;9.13;;;;;;;16.69;88.47;96355.78;4990187;28;20557;-78
2022/08/25 04:41:39;;;;;;;11.05;8.40;;;;;;;16.68;88.38;96356.94;4990678;28;20050;-78
2022/08/25 04:44:07;;;;;;;13.27;8.70;;;;;;;16.64;88.13;96354.09;4990165;28;20150;-79
2022/08/25 04:46:34;;;;;;;13.48;9.23;;;;;;;16.63;88.29;96365.47;4990774;28;20054;-78
2022/08/25 04:49:02;;;;;;;14.68;9.13;;;;;;;16.63;88.16;96362.72;4990597;28;20050;-78
2022/08/25 04:51:31;;;;;;;13.70;9.32;;;;;;;16.55;88.09;96364.50;4990254;28;20040;-79
2022/08/25 04:54:00;;;;;;;13.40;8.95;;;;;;;16.54;88.04;96365.63;4991238;28;20054;-79
2022/08/25 04:56:28;;;;;;;12.48;8.82;;;;;;;16.52;88.21;96361.66;4990419;28;20042;-78
2022/08/25 04:58:56;;;;;;;12.93;8.05;;;;;;;16.48;87.74;96366.28;4990792;28;20517;-80
2022/08/25 05:01:25;;;;;;;12.95;7.93;;;;;;;16.39;87.31;96364.53;4990288;28;20050;-79
2022/08/25 05:03:54;;;;;;;11.77;8.13;;;;;;;16.35;87.66;96360.88;4990445;28;20050;-78
2022/08/25 05:06:20;;;;;;;12.15;8.63;;;;;;;16.34;87.81;96362.03;4989937;28;20058;-78
2022/08/25 05:08:47;;;;;;;11.85;8.40;;;;;;;16.37;88.35;96360.50;4990340;28;20049;-79
2022/08/25 05:11:16;;;;;;;15.57;9.00;;;;;;;16.33;88.34;96360.41;4990916;28;20513;-78
2022/08/25 05:13:44;;;;;;;14.88;9.10;;;;;;;16.32;88.79;96358.03;4990708;28;20126;-78
2022/08/25 05:16:11;;;;;;;14.30;8.65;;;;;;;16.33;89.29;96360.41;4990057;28;20057;-78
2022/08/25 05:18:39;;;;;;;12.55;8.75;;;;;;;16.37;89.69;96355.81;4990454;28;20054;-79
2022/08/25 05:21:08;;;;;;;13.13;8.98;;;;;;;16.37;89.44;96355.81;4989862;28;20046;-79
2022/08/25 05:23:35;;;;;;;15.15;9.48;;;;;;;16.39;89.70;96349.97;4990909;28;20402;-78
2022/08/25 05:26:04;;;;;;;14.73;9.32;;;;;;;16.44;90.21;96361.50;4990480;28;20046;-78
2022/08/25 05:28:31;;;;;;;12.15;9.38;;;;;;;16.48;90.66;96353.31;4990292;28;20042;-79
2022/08/25 05:30:59;;;;;;;13.60;9.65;;;;;;;16.55;91.01;96366.44;4990248;28;20053;-79
2022/08/25 05:33:27;;;;;;;15.85;9.32;;;;;;;16.57;90.55;96353.16;4989966;28;20049;-78
2022/08/25 05:35:55;;;;;;;13.15;9.27;;;;;;;16.63;91.31;96351.72;4990217;28;20126;-78
2022/08/25 05:38:22;;;;;;;14.90;10.27;;;;;;;16.70;92.25;96351.88;4989879;28;20078;-80
2022/08/25 05:40:52;;;;;;;17.30;11.57;;;;;;;16.53;92.22;96352.25;4990056;28;20054;-78
2022/08/25 05:43:18;;;;;;;17.98;11.07;;;;;;;16.62;92.43;96339.94;4989815;28;20046;-79
2022/08/25 05:45:45;;;;;;;15.98;10.30;;;;;;;16.79;91.87;96344.25;4990242;28;20144;-79
2022/08/25 05:48:12;;;;;;;18.30;11.13;;;;;;;16.84;91.56;96346.75;4989858;28;20079;-78
2022/08/25 05:50:38;;;;;;;15.52;10.32;;;;;;;16.89;91.08;96340.97;4990330;28;20058;-79
2022/08/25 05:53:06;;;;;;;16.40;11.23;;;;;;;16.88;91.56;96342.13;4994672;28;20058;-81
2022/08/25 05:55:33;;;;;;;14.88;9.80;;;;;;;17.06;91.22;96337.00;5016576;28;20111;-83
2022/08/25 05:57:59;;;;;;;18.40;11.68;;;;;;;17.07;90.71;96346.03;5014494;28;20110;-84
2022/08/25 06:00:26;;;;;;;16.27;10.45;;;;;;;17.23;90.34;96346.81;5016286;28;20043;-85
2022/08/25 06:02:51;;;;;;;19.90;11.45;;;;;;;17.29;90.37;96348.13;5014038;28;20046;-85
2022/08/25 06:05:41;;;;;;;14.25;10.65;;;;;;;17.44;90.23;96350.00;5002430;28;20057;-83
2022/08/25 06:08:12;;;;;;;15.02;10.68;;;;;;;17.46;90.07;96350.44;5012892;28;20054;-83
2022/08/25 06:10:38;;;;;;;19.15;12.48;;;;;;;17.42;90.21;96344.03;5012312;28;20054;-84
2022/08/25 06:13:05;;;;;;;17.42;11.45;;;;;;;17.47;90.29;96346.50;5014928;28;20050;-82
2022/08/25 06:15:38;;;;;;;24.10;15.05;;;;;;;17.48;90.39;96347.31;5016273;28;20050;-85
2022/08/25 06:18:25;;;;;;;;;;;;;;;17.56;90.39;96351.81;5225048;23;20092;-84
2022/08/25 06:23:29;;;;;;;17.05;12.23;;;;;;;17.63;90.18;96346.44;5021850;23;20105;-83
2022/08/25 06:26:05;;;;;;;22.45;14.27;;;;;;;17.75;90.17;96345.53;5032682;28;20046;-84
2022/08/25 06:28:32;;;;;;;24.58;14.63;;;;;;;17.91;89.72;96348.97;5033456;28;20056;-84
2022/08/25 06:31:00;;;;;;;17.52;12.15;;;;;;;18.03;89.43;96339.72;5034796;28;20061;-85
2022/08/25 06:33:27;;;;;;;15.52;10.68;;;;;;;18.16;88.87;96332.06;5034135;28;20050;-86
2022/08/25 06:35:55;;;;;;;17.15;11.40;;;;;;;18.14;88.23;96328.91;5035622;28;20046;-83
2022/08/25 06:38:23;;;;;;;16.33;11.13;;;;;;;18.31;88.25;96339.41;5033553;28;20064;-86
2022/08/25 06:40:51;;;;;;;16.08;11.25;;;;;;;18.36;87.24;96336.34;5035091;28;20050;-85
2022/08/25 06:43:19;;;;;;;21.60;13.65;;;;;;;18.50;86.83;96342.09;5031642;28;20054;-83
2022/08/25 06:45:47;;;;;;;16.33;12.25;;;;;;;18.59;86.76;96338.31;5031838;28;20042;-83
2022/08/25 06:48:14;;;;;;;17.52;11.43;;;;;;;18.71;86.58;96340.88;5032749;28;20532;-83
2022/08/25 06:50:42;;;;;;;15.88;11.57;;;;;;;18.76;85.90;96333.06;5032893;28;20046;-82
2022/08/25 06:53:08;;;;;;;15.23;10.45;;;;;;;18.88;85.64;96329.31;5028739;28;20050;-83
2022/08/25 06:55:43;;;;;;;18.73;11.52;;;;;;;18.93;84.79;96336.47;5022588;28;20069;-85
2022/08/25 06:58:15;;;;;;;16.63;11.93;;;;;;;18.89;84.45;96341.94;5031563;28;20033;-84
2022/08/25 07:00:42;;;;;;;17.60;11.50;;;;;;;18.97;84.43;96335.34;5028612;28;20095;-82
2022/08/25 07:03:09;;;;;;;16.38;10.65;;;;;;;19.13;84.41;96337.16;5042529;28;20081;-82
2022/08/25 07:05:39;;;;;;;16.10;11.38;;;;;;;19.16;84.29;96339.13;5035808;28;20041;-85
2022/08/25 07:08:07;;;;;;;16.20;11.30;;;;;;;19.29;84.74;96344.06;5030751;28;20057;-83
2022/08/25 07:10:34;;;;;;;15.38;11.10;;;;;;;19.40;83.28;96344.19;5005610;28;20073;-82
2022/08/25 07:13:02;;;;;;;16.98;10.88;;;;;;;19.58;83.59;96338.13;5023368;28;20050;-82
2022/08/25 07:15:38;;;;;;;25.35;17.42;;;;;;;19.54;82.78;96347.13;5020979;28;20049;-85
2022/08/25 07:18:06;;;;;;;20.38;13.20;;;;;;;19.69;82.19;96341.81;5029040;28;20045;-85
2022/08/25 07:20:36;;;;;;;15.70;10.18;;;;;;;19.71;81.73;96345.00;5026478;28;20042;-84
2022/08/25 07:23:02;;;;;;;16.80;10.73;;;;;;;19.74;81.73;96341.47;5029152;28;20066;-78
2022/08/25 07:25:29;;;;;;;15.85;10.75;;;;;;;19.73;81.70;96339.88;5010849;28;20101;-84
2022/08/25 07:27:56;;;;;;;13.90;10.15;;;;;;;19.84;81.42;96335.28;5013155;28;20090;-81
2022/08/25 07:30:23;;;;;;;13.95;10.35;;;;;;;20.01;80.39;96334.66;5011172;28;20029;-82
2022/08/25 07:32:51;;;;;;;14.07;9.88;;;;;;;20.17;79.19;96337.19;5011967;28;20082;-84
2022/08/25 07:35:22;;;;;;;16.48;10.57;;;;;;;20.36;78.81;96333.41;5012612;28;20185;-84
2022/08/25 07:37:50;;;;;;;14.98;9.90;;;;;;;20.73;75.92;96336.09;5019162;28;20042;-86
2022/08/25 07:40:21;;;;;;;15.50;10.07;;;;;;;21.28;74.75;96335.25;5014545;28;20074;-85
2022/08/25 07:42:50;;;;;;;15.13;8.93;;;;;;;21.80;71.92;96338.66;5013349;28;20076;-83
2022/08/25 07:45:17;;;;;;;13.10;9.30;;;;;;;22.20;70.39;96336.78;5110678;23;20171;-83
2022/08/25 07:47:44;;;;;;;14.48;8.32;;;;;;;22.53;68.70;96335.63;5041659;23;20046;-85
2022/08/25 07:50:20;;;;;;;13.18;8.70;;;;;;;22.78;67.42;96336.41;5028494;28;20052;-83
2022/08/25 07:52:48;;;;;;;10.13;7.38;;;;;;;22.99;67.00;96337.59;5203687;23;20046;-84
2022/08/25 07:55:25;;;;;;;11.73;8.32;;;;;;;23.22;65.79;96342.69;5033550;28;20034;-84
2022/08/25 07:57:55;;;;;;;14.35;8.20;;;;;;;23.47;65.38;96335.09;5005400;28;20077;-84
2022/08/25 08:02:58;;;;;;;12.85;7.82;;;;;;;23.60;64.60;96333.47;5755802;23;20034;-85
2022/08/25 08:05:27;;;;;;;14.52;8.27;;;;;;;23.73;64.27;96335.81;5049821;23;20082;-83
2022/08/25 08:10:21;;;;;;;17.17;9.95;;;;;;;23.70;62.56;96337.41;5817073;23;20109;-85
2022/08/25 08:15:23;;;;;;;12.48;8.65;;;;;;;24.03;62.23;96336.03;5970670;23;20044;-79
2022/08/25 08:17:50;;;;;;;13.65;9.07;;;;;;;24.01;62.56;96335.66;5035513;28;20045;-83
2022/08/25 08:20:17;;;;;;;14.30;8.55;;;;;;;24.15;64.10;96335.56;5132143;23;20119;-83
2022/08/25 08:25:20;;;;;;;11.15;7.55;;;;;;;24.55;62.79;96324.97;5661043;23;20520;-83
2022/08/25 08:27:49;;;;;;;9.93;7.20;;;;;;;24.66;60.77;96331.25;5020868;28;20048;-83
2022/08/25 08:30:16;;;;;;;12.00;7.55;;;;;;;24.72;60.17;96335.16;5014007;28;20053;-82
2022/08/25 08:35:30;;;;;;;9.40;6.90;;;;;;;24.80;59.18;96326.78;5686306;23;20049;-83
2022/08/25 08:37:57;;;;;;;10.98;7.20;;;;;;;24.80;59.64;96323.97;5014408;28;20056;-84
2022/08/25 08:40:25;;;;;;;10.07;7.10;;;;;;;24.72;59.70;96315.69;5015013;28;20133;-84
2022/08/25 08:46:10;;;;;;;8.73;7.15;;;;;;;24.52;60.51;96320.22;4996294;28;20053;-83
2022/08/25 08:48:59;;;;;;;11.23;6.88;;;;;;;24.68;61.96;96325.25;5020460;28;20424;-83
2022/08/25 08:51:31;;;;;;;10.57;7.25;;;;;;;24.66;60.04;96325.69;5016388;28;20397;-85
2022/08/25 08:54:07;;;;;;;12.37;7.20;;;;;;;24.60;60.51;96327.31;5016846;28;20046;-83
2022/08/25 08:56:40;;;;;;;10.55;7.57;;;;;;;24.57;60.51;96328.13;5015836;28;20340;-83
2022/08/25 08:59:13;;;;;;;11.15;7.78;;;;;;;24.51;61.66;96324.22;5015731;28;20072;-83
2022/08/25 09:01:44;;;;;;;;;;;;;;;24.60;62.33;96313.41;5016912;28;20057;-86
2022/08/25 09:04:15;;;;;;;11.43;7.80;;;;;;;24.37;60.85;96310.41;5008934;28;19953;-83
2022/08/25 09:06:44;;;;;;;11.95;8.23;;;;;;;24.19;61.37;96305.72;5028257;28;20563;-82
2022/08/25 09:09:14;;;;;;;11.57;8.65;;;;;;;24.10;61.93;96305.38;5034027;28;20113;-82
2022/08/25 09:12:00;;;;;;;10.23;7.75;;;;;;;24.20;62.92;96307.31;5033398;28;20109;-82
2022/08/25 09:14:45;;;;;;;10.88;7.22;;;;;;;24.13;62.83;96301.81;5238008;23;20101;-85
2022/08/25 09:17:21;;;;;;;8.90;6.97;;;;;;;24.09;63.00;96303.81;5521505;23;20509;-82
2022/08/25 09:20:08;;;;;;;9.88;7.63;;;;;;;24.20;62.68;96306.53;5028477;28;20133;-82
2022/08/25 09:22:49;;;;;;;11.02;6.95;;;;;;;24.36;64.38;96303.25;5025346;28;20620;-82
2022/08/25 09:25:22;;;;;;;13.52;9.02;;;;;;;24.17;62.14;96299.78;5248344;23;20061;-83
2022/08/25 09:33:03;;;;;;;12.50;8.27;;;;;;;23.71;63.33;96300.06;5385342;23;20038;-85
2022/08/25 09:40:43;;;;;;;13.38;8.80;;;;;;;23.69;64.37;96297.69;5143416;23;20033;-84
2022/08/25 09:48:36;;;;;;;10.57;8.43;;;;;;;23.55;67.68;96292.19;5598998;23;20124;-84
2022/08/25 09:51:16;;;;;;;15.60;9.50;;;;;;;23.81;67.43;96282.53;5099994;23;20025;-82
2022/08/25 09:53:51;;;;;;;13.35;8.35;;;;;;;24.05;65.67;96280.00;5036566;28;20053;-84
2022/08/25 09:56:20;;;;;;;14.70;9.00;;;;;;;24.09;65.10;96276.00;5473712;23;20556;-83
2022/08/25 09:58:47;;;;;;;15.13;9.10;;;;;;;24.20;63.82;96282.28;5231575;23;20085;-84
2022/08/25 10:01:15;;;;;;;15.75;8.60;;;;;;;24.35;63.76;96277.41;5029541;28;20054;-83
2022/08/25 10:06:18;;;;;;;17.23;9.52;;;;;;;24.78;63.33;96277.03;5187673;23;20042;-84
2022/08/25 10:08:56;;;;;;;17.50;9.07;;;;;;;25.03;59.31;96276.78;5019096;28;20128;-85
2022/08/25 10:11:37;;;;;;;16.23;8.27;;;;;;;25.22;59.04;96284.56;5015312;28;20050;-84
2022/08/25 10:14:12;;;;;;;15.00;8.25;;;;;;;25.39;58.84;96281.97;5014641;28;20088;-85
2022/08/25 10:16:38;;;;;;;14.52;8.82;;;;;;;25.47;56.42;96275.09;5013683;28;20401;-87
2022/08/25 10:19:08;;;;;;;21.00;9.38;;;;;;;25.56;56.66;96269.03;5014105;28;20053;-87
2022/08/25 10:21:39;;;;;;;16.13;8.88;;;;;;;25.65;57.11;96267.31;5013603;28;20064;-87
2022/08/25 10:24:07;;;;;;;18.83;9.02;;;;;;;25.68;57.35;96269.25;5012182;28;20081;-89
2022/08/25 10:26:47;;;;;;;16.83;8.38;;;;;;;25.77;55.44;96268.75;5011877;28;20054;-87
2022/08/25 10:29:31;;;;;;;16.00;8.48;;;;;;;25.88;57.40;96261.03;5012716;28;20042;-87
2022/08/25 10:32:03;;;;;;;18.27;8.05;;;;;;;25.94;55.71;96264.13;5013126;28;20397;-88
2022/08/25 10:34:44;;;;;;;18.40;8.55;;;;;;;26.06;56.55;96258.00;5012813;28;20053;-86
2022/08/25 10:37:23;;;;;;;12.07;8.15;;;;;;;26.21;56.35;96255.78;5012199;28;20057;-88
2022/08/25 10:39:59;;;;;;;18.60;9.50;;;;;;;26.33;55.92;96255.16;5012213;28;20073;-90
2022/08/25 10:42:39;;;;;;;19.30;8.07;;;;;;;26.33;54.29;96243.22;5011734;28;20045;-89
2022/08/25 10:48:27;;;;;;;17.83;7.93;;;;;;;26.23;55.20;96240.16;5012360;28;20053;-88
2022/08/25 10:50:59;;;;;;;10.88;7.80;;;;;;;26.22;54.46;96238.59;5012506;28;20058;-89
2022/08/25 10:53:34;;;;;;;16.45;8.00;;;;;;;26.37;55.02;96238.38;5011713;28;20046;-87
2022/08/25 10:56:10;;;;;;;13.10;7.88;;;;;;;26.21;56.75;96241.81;5012095;28;20052;-88
2022/08/25 10:59:16;;;;;;;19.33;7.78;;;;;;;26.14;53.06;96245.50;5011851;28;20053;-89
2022/08/25 11:02:13;;;;;;;16.85;8.80;;;;;;;26.21;54.17;96242.59;5011837;28;20050;-88
2022/08/25 11:04:44;;;;;;;18.33;8.23;;;;;;;26.09;53.59;96243.19;5011862;28;20042;-88
2022/08/25 11:07:19;;;;;;;17.23;8.30;;;;;;;26.04;55.13;96238.06;5011017;28;20417;-88
2022/08/25 11:09:50;;;;;;;15.02;7.70;;;;;;;26.02;53.80;96232.13;5011841;28;20167;-89
2022/08/25 11:12:26;;;;;;;13.88;7.80;;;;;;;26.11;53.60;96232.41;5011351;28;20575;-87
2022/08/25 11:14:57;;;;;;;18.70;7.85;;;;;;;26.26;54.33;96230.97;5011839;28;20061;-88
2022/08/25 11:17:27;;;;;;;14.43;7.97;;;;;;;26.26;52.91;96233.75;5011470;28;20132;-88
2022/08/25 11:20:02;;;;;;;12.50;7.82;;;;;;;26.42;55.04;96218.38;5012392;28;20045;-89
2022/08/25 11:22:36;;;;;;;22.95;8.50;;;;;;;26.46;54.87;96216.28;5011341;28;20042;-88
2022/08/25 11:25:14;;;;;;;25.48;8.73;;;;;;;26.38;53.31;96229.56;5011407;28;20394;-88
2022/08/25 11:27:48;;;;;;;21.17;7.72;;;;;;;26.25;51.72;96215.41;5011862;28;20050;-90
2022/08/25 11:30:17;;;;;;;20.38;8.10;;;;;;;26.34;51.39;96214.88;5012102;28;20101;-87
2022/08/25 11:32:47;;;;;;;16.55;8.38;;;;;;;26.29;51.30;96221.72;5011636;28;20045;-88
2022/08/25 11:35:16;;;;;;;27.05;9.18;;;;;;;26.33;51.30;96220.88;5011379;28;20049;-89
2022/08/25 11:37:53;;;;;;;15.43;8.02;;;;;;;26.46;52.58;96208.69;5011406;28;20046;-88
2022/08/25 11:40:35;;;;;;;17.13;7.93;;;;;;;26.62;52.92;96208.00;5010841;28;20049;-88
2022/08/25 11:43:13;;;;;;;15.45;8.45;;;;;;;26.65;53.45;96203.59;5010360;28;20053;-87
2022/08/25 11:45:54;;;;;;;13.05;8.52;;;;;;;26.71;52.40;96208.25;5010938;28;20457;-88
2022/08/25 11:48:29;;;;;;;15.95;8.00;;;;;;;26.79;51.43;96209.72;5010563;28;20042;-88
2022/08/25 11:51:01;;;;;;;24.13;9.05;;;;;;;26.89;52.07;96201.56;5010239;28;20053;-87
2022/08/25 11:53:30;;;;;;;17.98;8.88;;;;;;;27.00;52.00;96197.34;5010080;28;20053;-89
2022/08/25 11:56:03;;;;;;;25.55;9.48;;;;;;;26.93;50.58;96202.25;5011052;28;20104;-88
2022/08/25 11:58:37;;;;;;;;;;;;;;;27.02;50.90;96188.50;5011116;28;20627;-88
2022/08/25 12:01:06;;;;;;;21.30;8.70;;;;;;;26.97;50.59;96202.97;5010769;28;19960;-89
2022/08/25 12:03:52;;;;;;;17.88;8.13;;;;;;;26.90;53.78;96180.78;5018002;28;20042;-88
2022/08/25 12:06:29;;;;;;;20.88;9.10;;;;;;;26.85;51.42;96190.44;5017589;28;20057;-89
2022/08/25 12:09:22;;;;;;;18.10;8.93;;;;;;;26.83;51.39;96189.28;5011126;28;20432;-89
2022/08/25 12:11:56;;;;;;;16.98;7.57;;;;;;;26.68;49.64;96186.78;4986252;28;20489;-87
2022/08/25 12:14:47;;;;;;;23.50;8.93;;;;;;;26.59;48.90;96189.34;5010300;28;20056;-87
2022/08/25 12:17:22;;;;;;;19.35;8.25;;;;;;;26.51;50.33;96182.28;5010109;28;20042;-89
2022/08/25 12:19:56;;;;;;;20.58;8.63;;;;;;;26.30;50.60;96186.22;5010853;28;20049;-88